sensor_id;sensor_type;location;lat;lon;timestamp;pressure;altitude;pressure_sealevel;temperature;humidity
4123;BME280;2075;51.062;6.920;2023-08-24T00:01:41;91938.13;;;-144.48;100.00
4123;BME280;2075;51.062;6.920;2023-08-24T00:04:27;91485.41;;;-144.48;100.00
4123;BME280;2075;51.062;6.920;2023-08-24T00:07:15;91120.03;;;-144.48;100.00
4123;BME280;2075;51.062;6.920;2023-08-24T00:10:02;91020.56;;;-144.48;100.00
4123;BME280;2075;51.062;6.920;2023-08-24T00:12:48;90797.31;;;-144.48;100.00
4123;BME280;2075;51.062;6.920;2023-08-24T00:15:34;90346.75;;;-144.48;100.00
4123;BME280;2075;51.062;6.920;2023-08-24T00:18:21;91824.44;;;-144.48;100.00
4123;BME280;2075;51.062;6.920;2023-08-24T00:21:08;92549.31;;;-144.48;100.00
4123;BME280;2075;51.062;6.920;2023-08-24T00:23:54;92721.91;;;-144.48;100.00
4123;BME280;2075;51.062;6.920;2023-08-24T00:26:40;92663.03;;;-144.48;100.00
4123;BME280;2075;51.062;6.920;2023-08-24T00:29:27;92786.91;;;-144.48;100.00
4123;BME280;2075;51.062;6.920;2023-08-24T00:32:17;92819.41;;;-144.48;100.00
4123;BME280;2075;51.062;6.920;2023-08-24T00:35:08;92697.56;;;-144.48;100.00
4123;BME280;2075;51.062;6.920;2023-08-24T00:37:55;92248.78;;;-144.48;100.00
4123;BME280;2075;51.062;6.920;2023-08-24T00:40:41;92486.38;;;-144.48;100.00
4123;BME280;2075;51.062;6.920;2023-08-24T00:43:33;92059.97;;;-144.48;100.00
4123;BME280;2075;51.062;6.920;2023-08-24T00:46:26;90732.34;;;-144.48;100.00
4123;BME280;2075;51.062;6.920;2023-08-24T00:49:16;88431.56;;;-144.48;100.00
4123;BME280;2075;51.062;6.920;2023-08-24T00:52:04;84183.00;;;-144.48;100.00
4123;BME280;2075;51.062;6.920;2023-08-24T00:54:52;75699.53;;;-144.48;100.00
4123;BME280;2075;51.062;6.920;2023-08-24T00:57:42;70764.38;;;-144.48;100.00
4123;BME280;2075;51.062;6.920;2023-08-24T01:00:29;77363.00;;;-144.48;100.00
4123;BME280;2075;51.062;6.920;2023-08-24T01:03:21;84900.19;;;-144.48;100.00
4123;BME280;2075;51.062;6.920;2023-08-24T01:06:07;89965.25;;;-144.48;100.00
4123;BME280;2075;51.062;6.920;2023-08-24T01:08:56;91016.50;;;-144.48;100.00
4123;BME280;2075;51.062;6.920;2023-08-24T01:11:56;91383.91;;;-144.48;100.00
4123;BME280;2075;51.062;6.920;2023-08-24T01:14:54;92429.50;;;-144.48;100.00
4123;BME280;2075;51.062;6.920;2023-08-24T01:17:43;91917.84;;;-144.48;100.00
4123;BME280;2075;51.062;6.920;2023-08-24T01:20:30;90892.69;;;-144.48;100.00
4123;BME280;2075;51.062;6.920;2023-08-24T01:23:27;90381.25;;;-144.48;100.00
4123;BME280;2075;51.062;6.920;2023-08-24T01:26:22;90760.78;;;-144.48;100.00
4123;BME280;2075;51.062;6.920;2023-08-24T01:29:09;90839.94;;;-144.48;100.00
4123;BME280;2075;51.062;6.920;2023-08-24T01:31:55;91700.59;;;-144.48;100.00
4123;BME280;2075;51.062;6.920;2023-08-24T01:34:42;91034.78;;;-144.48;100.00
4123;BME280;2075;51.062;6.920;2023-08-24T01:37:28;90961.69;;;-144.48;100.00
4123;BME280;2075;51.062;6.920;2023-08-24T01:40:19;91422.47;;;-144.48;100.00
4123;BME280;2075;51.062;6.920;2023-08-24T01:43:10;92088.38;;;-144.48;100.00
4123;BME280;2075;51.062;6.920;2023-08-24T01:45:58;92287.38;;;-144.48;100.00
4123;BME280;2075;51.062;6.920;2023-08-24T01:48:47;92147.25;;;-144.48;100.00
4123;BME280;2075;51.062;6.920;2023-08-24T01:51:34;92713.78;;;-144.48;100.00
4123;BME280;2075;51.062;6.920;2023-08-24T01:54:24;92596.00;;;-144.48;100.00
4123;BME280;2075;51.062;6.920;2023-08-24T01:57:13;92279.25;;;-144.48;100.00
4123;BME280;2075;51.062;6.920;2023-08-24T02:00:00;92098.53;;;-144.48;100.00
4123;BME280;2075;51.062;6.920;2023-08-24T02:02:58;91483.38;;;-144.48;100.00
4123;BME280;2075;51.062;6.920;2023-08-24T02:05:44;90515.19;;;-144.48;100.00
4123;BME280;2075;51.062;6.920;2023-08-24T02:08:30;90570.00;;;-144.48;100.00
4123;BME280;2075;51.062;6.920;2023-08-24T02:11:16;88208.47;;;-144.48;100.00
4123;BME280;2075;51.062;6.920;2023-08-24T02:14:02;84114.13;;;-144.48;100.00
4123;BME280;2075;51.062;6.920;2023-08-24T02:16:49;83356.59;;;-144.48;100.00
4123;BME280;2075;51.062;6.920;2023-08-24T02:19:36;81601.16;;;-144.48;100.00
4123;BME280;2075;51.062;6.920;2023-08-24T02:22:22;85870.84;;;-144.48;100.00
4123;BME280;2075;51.062;6.920;2023-08-24T02:25:09;85806.00;;;-144.48;100.00
4123;BME280;2075;51.062;6.920;2023-08-24T02:27:58;88634.41;;;-144.48;100.00
4123;BME280;2075;51.062;6.920;2023-08-24T02:30:45;91540.22;;;-144.48;100.00
4123;BME280;2075;51.062;6.920;2023-08-24T02:33:38;91298.66;;;-144.48;100.00
4123;BME280;2075;51.062;6.920;2023-08-24T02:36:24;89634.53;;;-144.48;100.00
4123;BME280;2075;51.062;6.920;2023-08-24T02:39:10;88674.97;;;-144.48;100.00
4123;BME280;2075;51.062;6.920;2023-08-24T02:41:57;89478.28;;;-144.48;100.00
4123;BME280;2075;51.062;6.920;2023-08-24T02:44:43;88914.31;;;-144.48;100.00
4123;BME280;2075;51.062;6.920;2023-08-24T02:47:30;89005.59;;;-144.48;100.00
4123;BME280;2075;51.062;6.920;2023-08-24T02:50:19;88861.59;;;-144.48;100.00
4123;BME280;2075;51.062;6.920;2023-08-24T02:53:05;89790.75;;;-144.48;100.00
4123;BME280;2075;51.062;6.920;2023-08-24T02:55:52;91552.41;;;-144.48;100.00
4123;BME280;2075;51.062;6.920;2023-08-24T02:58:39;91974.69;;;-144.48;100.00
4123;BME280;2075;51.062;6.920;2023-08-24T03:01:25;91773.69;;;-144.48;100.00
4123;BME280;2075;51.062;6.920;2023-08-24T03:04:12;92191.94;;;-144.48;100.00
4123;BME280;2075;51.062;6.920;2023-08-24T03:07:01;92608.19;;;-144.48;100.00
4123;BME280;2075;51.062;6.920;2023-08-24T03:09:48;92738.16;;;-144.48;100.00
4123;BME280;2075;51.062;6.920;2023-08-24T03:12:35;92677.25;;;-144.48;100.00
4123;BME280;2075;51.062;6.920;2023-08-24T03:15:22;92689.44;;;-144.48;100.00
4123;BME280;2075;51.062;6.920;2023-08-24T03:18:12;92742.22;;;-144.48;100.00
4123;BME280;2075;51.062;6.920;2023-08-24T03:21:04;92717.84;;;-144.48;100.00
4123;BME280;2075;51.062;6.920;2023-08-24T03:23:54;92959.53;;;-144.48;100.00
4123;BME280;2075;51.062;6.920;2023-08-24T03:26:43;92977.81;;;-144.48;100.00
4123;BME280;2075;51.062;6.920;2023-08-24T03:29:29;92805.19;;;-144.48;100.00
4123;BME280;2075;51.062;6.920;2023-08-24T03:32:16;92734.09;;;-144.48;100.00
4123;BME280;2075;51.062;6.920;2023-08-24T03:38:25;93022.47;;;-144.48;100.00
4123;BME280;2075;51.062;6.920;2023-08-24T03:46:45;92906.72;;;-144.48;100.00
4123;BME280;2075;51.062;6.920;2023-08-24T03:52:07;92740.19;;;-144.48;100.00
4123;BME280;2075;51.062;6.920;2023-08-24T03:54:56;92953.44;;;-144.48;100.00
4123;BME280;2075;51.062;6.920;2023-08-24T03:57:45;92782.84;;;-144.48;100.00
4123;BME280;2075;51.062;6.920;2023-08-24T04:00:34;92782.84;;;-144.48;100.00
4123;BME280;2075;51.062;6.920;2023-08-24T04:03:24;92801.13;;;-144.48;100.00
4123;BME280;2075;51.062;6.920;2023-08-24T04:06:10;92963.59;;;-144.48;100.00
4123;BME280;2075;51.062;6.920;2023-08-24T04:09:01;92685.38;;;-144.48;100.00
4123;BME280;2075;51.062;6.920;2023-08-24T04:11:53;92847.81;;;-144.48;100.00
4123;BME280;2075;51.062;6.920;2023-08-24T04:14:40;92851.88;;;-144.48;100.00
4123;BME280;2075;51.062;6.920;2023-08-24T04:17:27;93093.56;;;-144.48;100.00
4123;BME280;2075;51.062;6.920;2023-08-24T04:20:23;92709.75;;;-144.48;100.00
4123;BME280;2075;51.062;6.920;2023-08-24T04:23:12;92600.06;;;-144.48;100.00
4123;BME280;2075;51.062;6.920;2023-08-24T04:28:41;92669.13;;;-144.48;100.00
4123;BME280;2075;51.062;6.920;2023-08-24T04:34:09;92439.66;;;-144.48;100.00
4123;BME280;2075;51.062;6.920;2023-08-24T04:36:59;91934.06;;;-144.48;100.00
4123;BME280;2075;51.062;6.920;2023-08-24T04:39:47;92062.00;;;-144.48;100.00
4123;BME280;2075;51.062;6.920;2023-08-24T04:42:36;92047.78;;;-144.48;100.00
4123;BME280;2075;51.062;6.920;2023-08-24T04:45:22;88800.72;;;-144.48;100.00
4123;BME280;2075;51.062;6.920;2023-08-24T04:48:08;84207.31;;;-144.48;100.00
4123;BME280;2075;51.062;6.920;2023-08-24T04:50:53;58881.84;;;-144.48;100.00
4123;BME280;2075;51.062;6.920;2023-08-24T04:53:42;49115.28;;;-144.48;100.00
4123;BME280;2075;51.062;6.920;2023-08-24T04:56:28;44755.16;;;-144.48;100.00
4123;BME280;2075;51.062;6.920;2023-08-24T04:59:13;21002.47;;;-144.48;100.00
4123;BME280;2075;51.062;6.920;2023-08-24T05:02:00;23039.09;;;-144.48;100.00
4123;BME280;2075;51.062;6.920;2023-08-24T05:04:48;22020.63;;;-144.48;100.00
4123;BME280;2075;51.062;6.920;2023-08-24T05:07:34;51939.56;;;-144.48;100.00
4123;BME280;2075;51.062;6.920;2023-08-24T05:10:25;47832.31;;;-144.48;100.00
4123;BME280;2075;51.062;6.920;2023-08-24T05:13:15;40144.72;;;-144.48;100.00
4123;BME280;2075;51.062;6.920;2023-08-24T05:16:00;41936.91;;;-144.48;100.00
4123;BME280;2075;51.062;6.920;2023-08-24T05:18:50;30942.75;;;-144.48;100.00
4123;BME280;2075;51.062;6.920;2023-08-24T05:21:41;39376.91;;;-144.48;100.00
4123;BME280;2075;51.062;6.920;2023-08-24T05:24:28;40656.66;;;-144.48;100.00
4123;BME280;2075;51.062;6.920;2023-08-24T05:27:15;35029.38;;;-144.48;100.00
4123;BME280;2075;51.062;6.920;2023-08-24T05:30:00;32474.66;;;-144.48;100.00
4123;BME280;2075;51.062;6.920;2023-08-24T05:32:45;40656.66;;;-144.48;100.00
4123;BME280;2075;51.062;6.920;2023-08-24T05:35:31;42193.03;;;-144.48;100.00
4123;BME280;2075;51.062;6.920;2023-08-24T05:38:17;42961.47;;;-144.48;100.00
4123;BME280;2075;51.062;6.920;2023-08-24T05:41:03;44498.88;;;-144.48;100.00
4123;BME280;2075;51.062;6.920;2023-08-24T05:43:51;37074.59;;;-144.48;100.00
4123;BME280;2075;51.062;6.920;2023-08-24T05:46:38;37074.59;;;-144.48;100.00
4123;BME280;2075;51.062;6.920;2023-08-24T05:49:23;38097.66;;;-144.48;100.00
4123;BME280;2075;51.062;6.920;2023-08-24T05:52:09;39888.75;;;-144.48;100.00
4123;BME280;2075;51.062;6.920;2023-08-24T05:54:55;42961.47;;;-144.48;100.00
4123;BME280;2075;51.062;6.920;2023-08-24T05:57:41;51939.56;;;-144.48;100.00
4123;BME280;2075;51.062;6.920;2023-08-24T06:00:28;61714.25;;;-144.48;100.00
4123;BME280;2075;51.062;6.920;2023-08-24T06:03:14;66096.25;;;-144.48;100.00
4123;BME280;2075;51.062;6.920;2023-08-24T06:06:03;87975.25;;;-144.48;100.00
4123;BME280;2075;51.062;6.920;2023-08-24T06:08:50;91733.09;;;-144.48;100.00
4123;BME280;2075;51.062;6.920;2023-08-24T06:11:35;91840.69;;;-144.48;100.00
4123;BME280;2075;51.062;6.920;2023-08-24T06:14:21;91662.03;;;-144.48;100.00
4123;BME280;2075;51.062;6.920;2023-08-24T06:17:08;91625.50;;;-144.48;100.00
4123;BME280;2075;51.062;6.920;2023-08-24T06:20:00;91735.13;;;-144.48;100.00
4123;BME280;2075;51.062;6.920;2023-08-24T06:22:45;92429.50;;;-144.48;100.00
4123;BME280;2075;51.062;6.920;2023-08-24T06:25:32;92610.22;;;-144.48;100.00
4123;BME280;2075;51.062;6.920;2023-08-24T06:28:17;92616.31;;;-144.48;100.00
4123;BME280;2075;51.062;6.920;2023-08-24T06:33:50;91069.28;;;-144.48;49.78
4123;BME280;2075;51.062;6.920;2023-08-24T06:36:37;90208.75;;;-144.48;37.45
4123;BME280;2075;51.062;6.920;2023-08-24T06:39:24;90026.13;;;-144.48;36.18
4123;BME280;2075;51.062;6.920;2023-08-24T06:42:09;90046.41;;;-144.48;36.38
4123;BME280;2075;51.062;6.920;2023-08-24T06:44:55;90001.78;;;-144.48;35.57
4123;BME280;2075;51.062;6.920;2023-08-24T06:47:40;89770.47;;;-144.48;34.34
4123;BME280;2075;51.062;6.920;2023-08-24T06:50:27;90013.97;;;-144.48;34.37
4123;BME280;2075;51.062;6.920;2023-08-24T06:53:13;90314.28;;;-144.48;35.85
4123;BME280;2075;51.062;6.920;2023-08-24T06:56:00;90229.06;;;-144.48;35.63
4123;BME280;2075;51.062;6.920;2023-08-24T06:58:48;90058.59;;;-144.48;34.79
4123;BME280;2075;51.062;6.920;2023-08-24T07:01:33;90206.72;;;-144.48;35.41
4123;BME280;2075;51.062;6.920;2023-08-24T07:04:21;90265.59;;;-144.48;35.84
4123;BME280;2075;51.062;6.920;2023-08-24T07:07:09;90005.84;;;-144.48;34.67
4123;BME280;2075;51.062;6.920;2023-08-24T07:09:55;89912.50;;;-144.48;34.09
4123;BME280;2075;51.062;6.920;2023-08-24T07:12:40;89549.31;;;-144.48;32.57
4123;BME280;2075;51.062;6.920;2023-08-24T07:15:25;89088.78;;;-144.48;30.60
4123;BME280;2075;51.062;6.920;2023-08-24T07:18:10;88468.06;;;-144.48;28.98
4123;BME280;2075;51.062;6.920;2023-08-24T07:20:56;88297.72;;;-144.48;28.26
4123;BME280;2075;51.062;6.920;2023-08-24T07:23:43;87685.25;;;-144.48;27.19
4123;BME280;2075;51.062;6.920;2023-08-24T07:26:29;87689.31;;;-144.48;27.32
4123;BME280;2075;51.062;6.920;2023-08-24T07:29:15;88222.66;;;-144.48;27.83
4123;BME280;2075;51.062;6.920;2023-08-24T07:32:01;88555.28;;;-144.48;28.49
4123;BME280;2075;51.062;6.920;2023-08-24T07:34:47;88541.09;;;-144.48;28.26
4123;BME280;2075;51.062;6.920;2023-08-24T07:37:33;87802.88;;;-144.48;27.21
4123;BME280;2075;51.062;6.920;2023-08-24T07:40:20;87750.16;;;-144.48;26.66
4123;BME280;2075;51.062;6.920;2023-08-24T07:43:07;87291.88;;;-144.48;26.47
4123;BME280;2075;51.062;6.920;2023-08-24T07:45:56;86979.66;;;-144.48;25.92
4123;BME280;2075;51.062;6.920;2023-08-24T07:48:41;87979.31;;;-144.48;26.76
4123;BME280;2075;51.062;6.920;2023-08-24T07:51:27;88151.69;;;-144.48;27.13
4123;BME280;2075;51.062;6.920;2023-08-24T07:54:13;88330.16;;;-144.48;27.51
4123;BME280;2075;51.062;6.920;2023-08-24T07:57:00;88151.69;;;-144.48;27.10
4123;BME280;2075;51.062;6.920;2023-08-24T07:59:45;87898.19;;;-144.48;26.78
4123;BME280;2075;51.062;6.920;2023-08-24T08:02:31;88309.88;;;-144.48;27.37
4123;BME280;2075;51.062;6.920;2023-08-24T08:05:18;87902.25;;;-144.48;27.23
4123;BME280;2075;51.062;6.920;2023-08-24T08:08:04;87563.59;;;-144.48;26.84
4123;BME280;2075;51.062;6.920;2023-08-24T08:10:57;87855.59;;;-144.48;26.62
4123;BME280;2075;51.062;6.920;2023-08-24T08:13:45;88821.00;;;-144.48;28.29
4123;BME280;2075;51.062;6.920;2023-08-24T08:16:30;88967.06;;;-144.48;29.05
4123;BME280;2075;51.062;6.920;2023-08-24T08:19:16;88559.34;;;-144.48;28.52
4123;BME280;2075;51.062;6.920;2023-08-24T08:22:03;88790.59;;;-144.48;28.50
4123;BME280;2075;51.062;6.920;2023-08-24T08:24:49;88630.34;;;-144.48;27.97
4123;BME280;2075;51.062;6.920;2023-08-24T08:27:35;88342.31;;;-144.48;27.78
4123;BME280;2075;51.062;6.920;2023-08-24T08:30:24;88399.13;;;-144.48;27.91
4123;BME280;2075;51.062;6.920;2023-08-24T08:33:09;88224.69;;;-144.48;27.51
4123;BME280;2075;51.062;6.920;2023-08-24T08:35:54;88350.44;;;-144.48;28.13
4123;BME280;2075;51.062;6.920;2023-08-24T08:38:41;88634.41;;;-144.48;28.30
4123;BME280;2075;51.062;6.920;2023-08-24T08:41:31;89249.03;;;-144.48;29.76
4123;BME280;2075;51.062;6.920;2023-08-24T08:44:19;89196.31;;;-144.48;30.20
4123;BME280;2075;51.062;6.920;2023-08-24T08:47:09;89598.00;;;-144.48;31.39
4123;BME280;2075;51.062;6.920;2023-08-24T08:49:56;89305.84;;;-144.48;30.10
4123;BME280;2075;51.062;6.920;2023-08-24T08:52:47;88648.59;;;-144.48;28.99
4123;BME280;2075;51.062;6.920;2023-08-24T08:55:32;89251.06;;;-144.48;29.79
4123;BME280;2075;51.062;6.920;2023-08-24T08:58:20;90040.34;;;-144.48;32.92
4123;BME280;2075;51.062;6.920;2023-08-24T09:01:07;90645.09;;;-144.48;36.60
4123;BME280;2075;51.062;6.920;2023-08-24T09:03:57;90898.78;;;-144.48;40.20
4123;BME280;2075;51.062;6.920;2023-08-24T09:06:44;90896.75;;;-144.48;40.32
4123;BME280;2075;51.062;6.920;2023-08-24T09:09:30;91203.25;;;-144.48;41.45
4123;BME280;2075;51.062;6.920;2023-08-24T09:12:16;90793.25;;;-144.48;40.66
4123;BME280;2075;51.062;6.920;2023-08-24T09:15:08;90967.78;;;-144.48;41.92
4123;BME280;2075;51.062;6.920;2023-08-24T09:17:55;91178.91;;;-144.48;42.55
4123;BME280;2075;51.062;6.920;2023-08-24T09:20:42;91014.47;;;-144.48;41.46
4123;BME280;2075;51.062;6.920;2023-08-24T09:23:29;91109.88;;;-144.48;43.44
4123;BME280;2075;51.062;6.920;2023-08-24T09:26:15;91087.56;;;-144.48;43.39
4123;BME280;2075;51.062;6.920;2023-08-24T09:29:10;91059.13;;;-144.48;42.46
4123;BME280;2075;51.062;6.920;2023-08-24T09:31:56;91085.53;;;-144.48;42.78
4123;BME280;2075;51.062;6.920;2023-08-24T09:34:44;91178.91;;;-144.48;44.48
4123;BME280;2075;51.062;6.920;2023-08-24T09:37:33;91085.53;;;-144.48;43.68
4123;BME280;2075;51.062;6.920;2023-08-24T09:40:25;91018.53;;;-144.48;42.44
4123;BME280;2075;51.062;6.920;2023-08-24T09:43:12;91018.53;;;-144.48;41.83
4123;BME280;2075;51.062;6.920;2023-08-24T09:45:57;91128.16;;;-144.48;41.66
4123;BME280;2075;51.062;6.920;2023-08-24T09:48:43;91048.97;;;-144.48;41.69
4123;BME280;2075;51.062;6.920;2023-08-24T09:51:29;90963.75;;;-144.48;41.08
4123;BME280;2075;51.062;6.920;2023-08-24T09:54:16;90882.53;;;-144.48;40.02
4123;BME280;2075;51.062;6.920;2023-08-24T09:57:07;90598.41;;;-144.48;40.29
4123;BME280;2075;51.062;6.920;2023-08-24T09:59:54;90943.44;;;-144.48;41.16
4123;BME280;2075;51.062;6.920;2023-08-24T10:02:48;91034.78;;;-144.48;41.58
4123;BME280;2075;51.062;6.920;2023-08-24T10:05:35;91105.81;;;-144.48;41.45
4123;BME280;2075;51.062;6.920;2023-08-24T10:08:26;91061.16;;;-144.48;42.77
4123;BME280;2075;51.062;6.920;2023-08-24T10:11:17;90971.84;;;-144.48;41.67
4123;BME280;2075;51.062;6.920;2023-08-24T10:14:09;90902.84;;;-144.48;40.84
4123;BME280;2075;51.062;6.920;2023-08-24T10:16:56;90923.13;;;-144.48;41.13
4123;BME280;2075;51.062;6.920;2023-08-24T10:19:42;90852.09;;;-144.48;40.63
4123;BME280;2075;51.062;6.920;2023-08-24T10:22:28;90951.56;;;-144.48;40.73
4123;BME280;2075;51.062;6.920;2023-08-24T10:25:16;90967.78;;;-144.48;41.11
4123;BME280;2075;51.062;6.920;2023-08-24T10:28:03;91237.75;;;-144.48;40.97
4123;BME280;2075;51.062;6.920;2023-08-24T10:30:50;90884.56;;;-144.48;40.73
4123;BME280;2075;51.062;6.920;2023-08-24T10:33:36;90886.59;;;-144.48;40.86
4123;BME280;2075;51.062;6.920;2023-08-24T10:36:22;90760.78;;;-144.48;40.73
4123;BME280;2075;51.062;6.920;2023-08-24T10:39:11;90752.66;;;-144.48;40.03
4123;BME280;2075;51.062;6.920;2023-08-24T10:42:11;91069.28;;;-144.48;40.45
4123;BME280;2075;51.062;6.920;2023-08-24T10:45:07;90647.13;;;-144.48;40.15
4123;BME280;2075;51.062;6.920;2023-08-24T10:48:00;90511.13;;;-144.48;39.07
4123;BME280;2075;51.062;6.920;2023-08-24T10:51:16;90582.16;;;-144.48;38.55
4123;BME280;2075;51.062;6.920;2023-08-24T10:54:03;90539.53;;;-144.48;38.92
4123;BME280;2075;51.062;6.920;2023-08-24T10:56:52;90756.72;;;-144.48;40.00
4123;BME280;2075;51.062;6.920;2023-08-24T10:59:39;90643.06;;;-144.48;39.66
4123;BME280;2075;51.062;6.920;2023-08-24T11:02:26;90596.38;;;-144.48;39.27
4123;BME280;2075;51.062;6.920;2023-08-24T11:05:16;90665.38;;;-144.48;38.95
4123;BME280;2075;51.062;6.920;2023-08-24T11:08:04;90622.75;;;-144.48;38.85
4123;BME280;2075;51.062;6.920;2023-08-24T11:10:49;90574.06;;;-144.48;38.02
4123;BME280;2075;51.062;6.920;2023-08-24T11:13:35;90578.09;;;-144.48;36.64
4123;BME280;2075;51.062;6.920;2023-08-24T11:16:38;90604.50;;;-144.48;36.25
4123;BME280;2075;51.062;6.920;2023-08-24T11:19:25;90567.97;;;-144.48;35.82
4123;BME280;2075;51.062;6.920;2023-08-24T11:22:11;90494.91;;;-144.48;35.69
4123;BME280;2075;51.062;6.920;2023-08-24T11:24:57;90582.16;;;-144.48;35.18
4123;BME280;2075;51.062;6.920;2023-08-24T11:27:43;90501.00;;;-144.48;35.36
4123;BME280;2075;51.062;6.920;2023-08-24T11:30:30;90543.59;;;-144.48;35.46
4123;BME280;2075;51.062;6.920;2023-08-24T11:33:17;90699.88;;;-144.48;35.50
4123;BME280;2075;51.062;6.920;2023-08-24T11:36:04;90835.88;;;-144.48;35.92
4123;BME280;2075;51.062;6.920;2023-08-24T11:38:53;91028.69;;;-144.48;36.56
4123;BME280;2075;51.062;6.920;2023-08-24T11:41:38;91107.84;;;-144.48;37.20
4123;BME280;2075;51.062;6.920;2023-08-24T11:44:24;91044.94;;;-144.48;36.29
4123;BME280;2075;51.062;6.920;2023-08-24T11:47:09;90988.09;;;-144.48;36.30
4123;BME280;2075;51.062;6.920;2023-08-24T11:49:55;90927.19;;;-144.48;36.18
4123;BME280;2075;51.062;6.920;2023-08-24T11:52:42;90825.72;;;-144.48;35.76
4123;BME280;2075;51.062;6.920;2023-08-24T11:55:28;90630.88;;;-144.48;34.83
4123;BME280;2075;51.062;6.920;2023-08-24T11:58:14;90639.00;;;-144.48;34.94
4123;BME280;2075;51.062;6.920;2023-08-24T12:01:02;90649.16;;;-144.48;35.36
4123;BME280;2075;51.062;6.920;2023-08-24T12:03:47;90598.41;;;-144.48;35.12
4123;BME280;2075;51.062;6.920;2023-08-24T12:06:33;90651.16;;;-144.48;35.28
4123;BME280;2075;51.062;6.920;2023-08-24T12:09:20;90655.22;;;-144.48;35.75
4123;BME280;2075;51.062;6.920;2023-08-24T12:12:05;90659.28;;;-144.48;35.92
4123;BME280;2075;51.062;6.920;2023-08-24T12:14:51;90764.81;;;-144.48;37.28
4123;BME280;2075;51.062;6.920;2023-08-24T12:17:42;90789.19;;;-144.48;37.26
4123;BME280;2075;51.062;6.920;2023-08-24T12:20:30;90910.97;;;-144.48;40.50
4123;BME280;2075;51.062;6.920;2023-08-24T12:23:15;90890.66;;;-144.48;42.75
4123;BME280;2075;51.062;6.920;2023-08-24T12:26:02;90939.38;;;-144.48;43.45
4123;BME280;2075;51.062;6.920;2023-08-24T12:28:50;90996.22;;;-144.48;44.40
4123;BME280;2075;51.062;6.920;2023-08-24T12:31:36;91174.84;;;-144.48;48.66
4123;BME280;2075;51.062;6.920;2023-08-24T12:34:22;91233.69;;;-144.48;49.15
4123;BME280;2075;51.062;6.920;2023-08-24T12:37:07;91288.50;;;-144.48;52.08
4123;BME280;2075;51.062;6.920;2023-08-24T12:39:54;91286.47;;;-144.48;56.95
4123;BME280;2075;51.062;6.920;2023-08-24T12:42:40;91487.44;;;-144.48;58.30
4123;BME280;2075;51.062;6.920;2023-08-24T12:45:26;91446.84;;;-144.48;61.60
4123;BME280;2075;51.062;6.920;2023-08-24T12:48:11;91450.91;;;-144.48;63.28
4123;BME280;2075;51.062;6.920;2023-08-24T12:50:57;91487.44;;;-144.48;67.52
4123;BME280;2075;51.062;6.920;2023-08-24T12:53:43;91495.56;;;-144.48;66.89
4123;BME280;2075;51.062;6.920;2023-08-24T12:56:32;91377.81;;;-144.48;66.26
4123;BME280;2075;51.062;6.920;2023-08-24T12:59:23;91473.22;;;-144.48;65.76
4123;BME280;2075;51.062;6.920;2023-08-24T13:02:08;91365.66;;;-144.48;63.85
4123;BME280;2075;51.062;6.920;2023-08-24T13:04:54;91408.28;;;-144.48;63.01
4123;BME280;2075;51.062;6.920;2023-08-24T13:07:40;91359.56;;;-144.48;65.07
4123;BME280;2075;51.062;6.920;2023-08-24T13:10:26;91349.41;;;-144.48;70.74
4123;BME280;2075;51.062;6.920;2023-08-24T13:13:11;91402.19;;;-144.48;74.80
4123;BME280;2075;51.062;6.920;2023-08-24T13:15:59;91513.84;;;-144.48;78.72
4123;BME280;2075;51.062;6.920;2023-08-24T13:18:44;91501.66;;;-144.48;80.14
4123;BME280;2075;51.062;6.920;2023-08-24T13:21:29;91562.56;;;-144.48;81.09
4123;BME280;2075;51.062;6.920;2023-08-24T13:24:15;91631.56;;;-144.48;82.92
4123;BME280;2075;51.062;6.920;2023-08-24T13:27:00;91694.50;;;-144.48;84.44
4123;BME280;2075;51.062;6.920;2023-08-24T13:29:47;91670.16;;;-144.48;83.63
4123;BME280;2075;51.062;6.920;2023-08-24T13:32:33;91710.75;;;-144.48;84.60
4123;BME280;2075;51.062;6.920;2023-08-24T13:35:20;91670.16;;;-144.48;84.78
4123;BME280;2075;51.062;6.920;2023-08-24T13:38:05;91724.97;;;-144.48;85.95
4123;BME280;2075;51.062;6.920;2023-08-24T13:40:51;91751.34;;;-144.48;85.74
4123;BME280;2075;51.062;6.920;2023-08-24T13:43:37;91808.19;;;-144.48;86.32
4123;BME280;2075;51.062;6.920;2023-08-24T13:46:23;91735.13;;;-144.48;85.21
4123;BME280;2075;51.062;6.920;2023-08-24T13:49:10;91570.69;;;-144.48;81.99
4123;BME280;2075;51.062;6.920;2023-08-24T13:51:56;91562.56;;;-144.48;79.86
4123;BME280;2075;51.062;6.920;2023-08-24T13:54:41;91621.44;;;-144.48;79.41
4123;BME280;2075;51.062;6.920;2023-08-24T13:57:27;91523.97;;;-144.48;77.17
4123;BME280;2075;51.062;6.920;2023-08-24T14:00:13;91483.38;;;-144.48;74.81
4123;BME280;2075;51.062;6.920;2023-08-24T14:03:01;91542.25;;;-144.48;74.68
4123;BME280;2075;51.062;6.920;2023-08-24T14:05:48;91536.16;;;-144.48;73.44
4123;BME280;2075;51.062;6.920;2023-08-24T14:08:35;91519.94;;;-144.48;71.82
4123;BME280;2075;51.062;6.920;2023-08-24T14:11:20;91540.22;;;-144.48;72.81
4123;BME280;2075;51.062;6.920;2023-08-24T14:14:06;91603.16;;;-144.48;73.53
4123;BME280;2075;51.062;6.920;2023-08-24T14:16:55;91625.50;;;-144.48;75.66
4123;BME280;2075;51.062;6.920;2023-08-24T14:19:41;91613.31;;;-144.48;79.29
4123;BME280;2075;51.062;6.920;2023-08-24T14:22:29;91601.13;;;-144.48;82.71
4123;BME280;2075;51.062;6.920;2023-08-24T14:25:14;91753.38;;;-144.48;83.28
4123;BME280;2075;51.062;6.920;2023-08-24T14:27:59;91777.75;;;-144.48;86.64
4123;BME280;2075;51.062;6.920;2023-08-24T14:30:45;91477.28;;;-144.48;87.21
4123;BME280;2075;51.062;6.920;2023-08-24T14:33:30;91826.47;;;-144.48;87.03
4123;BME280;2075;51.062;6.920;2023-08-24T14:36:16;91779.78;;;-144.48;89.35
4123;BME280;2075;51.062;6.920;2023-08-24T14:39:04;91840.69;;;-144.48;89.81
4123;BME280;2075;51.062;6.920;2023-08-24T14:41:50;91779.78;;;-144.48;89.50
4123;BME280;2075;51.062;6.920;2023-08-24T14:44:36;91869.09;;;-144.48;89.20
4123;BME280;2075;51.062;6.920;2023-08-24T14:47:21;91911.75;;;-144.48;86.40
4123;BME280;2075;51.062;6.920;2023-08-24T14:50:09;91992.97;;;-144.48;88.26
4123;BME280;2075;51.062;6.920;2023-08-24T14:52:55;92043.72;;;-144.48;88.10
4123;BME280;2075;51.062;6.920;2023-08-24T14:55:41;92108.69;;;-144.48;92.21
4123;BME280;2075;51.062;6.920;2023-08-24T14:58:27;92133.06;;;-144.48;95.05
4123;BME280;2075;51.062;6.920;2023-08-24T15:01:12;92250.81;;;-144.48;98.84